createdAt,value
2023-10-12T00:01:52.785Z,2.83
2023-10-12T00:04:19.140Z,3.47
2023-10-12T00:06:45.506Z,3.10
2023-10-12T00:09:11.729Z,2.75
2023-10-12T00:11:37.896Z,3.15
2023-10-12T00:14:05.113Z,2.50
2023-10-12T00:16:31.327Z,2.28
2023-10-12T00:18:57.545Z,3.25
2023-10-12T00:21:23.732Z,2.55
2023-10-12T00:23:49.911Z,2.65
2023-10-12T00:26:16.169Z,2.35
2023-10-12T00:28:42.340Z,2.60
2023-10-12T00:31:08.571Z,2.55
2023-10-12T00:33:35.792Z,3.08
2023-10-12T00:36:02.253Z,3.10
2023-10-12T00:38:28.598Z,2.72
2023-10-12T00:40:54.756Z,3.13
2023-10-12T00:43:20.923Z,2.85
2023-10-12T00:45:47.193Z,3.08
2023-10-12T00:48:13.462Z,2.80
2023-10-12T00:50:39.671Z,3.85
2023-10-12T00:53:05.931Z,2.70
2023-10-12T00:55:32.084Z,3.00
2023-10-12T00:57:58.259Z,3.13
2023-10-12T01:00:24.800Z,3.15
2023-10-12T01:02:51.017Z,3.85
2023-10-12T01:05:17.294Z,2.88
2023-10-12T01:07:43.476Z,3.33
2023-10-12T01:10:09.641Z,3.80
2023-10-12T01:12:35.913Z,3.90
2023-10-12T01:15:02.126Z,3.38
2023-10-12T01:17:28.352Z,3.30
2023-10-12T01:19:55.539Z,3.63
2023-10-12T01:22:21.734Z,3.60
2023-10-12T01:24:47.932Z,3.30
2023-10-12T01:27:14.146Z,3.35
2023-10-12T01:29:40.296Z,3.80
2023-10-12T01:32:06.470Z,3.03
2023-10-12T01:34:32.732Z,3.30
2023-10-12T01:36:58.924Z,3.20
2023-10-12T01:39:25.168Z,2.90
2023-10-12T01:41:51.342Z,3.65
2023-10-12T01:44:17.690Z,3.38
2023-10-12T01:46:44.051Z,3.05
2023-10-12T01:49:10.334Z,3.58
2023-10-12T01:51:36.602Z,2.92
2023-10-12T01:54:02.814Z,3.50
2023-10-12T01:56:29.010Z,2.72
2023-10-12T01:58:55.161Z,2.88
2023-10-12T02:01:21.852Z,2.83
2023-10-12T02:03:49.304Z,3.70
2023-10-12T02:06:16.184Z,3.08
2023-10-12T02:08:42.336Z,3.40
2023-10-12T02:11:08.479Z,3.42
2023-10-12T02:13:34.643Z,3.35
2023-10-12T02:16:01.106Z,3.47
2023-10-12T02:18:27.423Z,3.70
2023-10-12T02:20:53.587Z,4.00
2023-10-12T02:23:19.743Z,4.07
2023-10-12T02:25:45.923Z,2.78
2023-10-12T02:28:12.097Z,3.05
2023-10-12T02:30:38.265Z,4.25
2023-10-12T02:33:04.496Z,4.05
2023-10-12T02:35:31.693Z,4.88
2023-10-12T02:37:57.870Z,5.00
2023-10-12T02:40:24.035Z,4.28
2023-10-12T02:42:50.223Z,3.75
2023-10-12T02:45:16.380Z,4.22
2023-10-12T02:47:42.757Z,4.63
2023-10-12T02:50:09.078Z,4.32
2023-10-12T02:52:35.258Z,3.80
2023-10-12T02:55:01.487Z,3.95
2023-10-12T02:57:27.673Z,3.97
2023-10-12T02:59:54.948Z,4.82
2023-10-12T03:02:21.193Z,4.63
2023-10-12T03:04:47.579Z,4.75
2023-10-12T03:07:13.798Z,4.88
2023-10-12T03:09:39.991Z,4.32
2023-10-12T03:12:06.170Z,5.10
2023-10-12T03:14:32.629Z,4.97
2023-10-12T03:16:58.976Z,4.57
2023-10-12T03:19:25.222Z,5.22
2023-10-12T03:21:51.580Z,5.60
2023-10-12T03:24:18.099Z,5.00
2023-10-12T03:26:44.568Z,4.55
2023-10-12T03:29:10.784Z,5.53
2023-10-12T03:31:37.021Z,4.63
2023-10-12T03:34:03.347Z,4.50
2023-10-12T03:36:29.551Z,5.38
2023-10-12T03:38:55.727Z,5.25
2023-10-12T03:41:21.910Z,4.90
2023-10-12T03:43:48.060Z,5.43
2023-10-12T03:46:14.359Z,5.63
2023-10-12T03:48:40.752Z,5.07
2023-10-12T03:51:06.998Z,6.13
2023-10-12T03:53:33.170Z,5.85
2023-10-12T03:55:59.330Z,6.82
2023-10-12T03:58:25.570Z,5.40
2023-10-12T04:00:51.947Z,6.03
2023-10-12T04:03:18.241Z,5.88
2023-10-12T04:08:28.335Z,5.90
2023-10-12T04:10:54.865Z,5.63
2023-10-12T04:13:21.145Z,5.95
2023-10-12T04:15:48.419Z,5.18
2023-10-12T04:18:14.585Z,6.13
2023-10-12T04:20:42.957Z,6.20
2023-10-12T04:23:09.119Z,5.60
2023-10-12T04:25:35.276Z,5.78
2023-10-12T04:28:01.463Z,5.78
2023-10-12T04:30:27.697Z,5.93
2023-10-12T04:32:54.018Z,6.50
2023-10-12T04:35:20.288Z,4.97
2023-10-12T04:37:46.501Z,5.70
2023-10-12T04:40:12.639Z,5.97
2023-10-12T04:42:38.877Z,6.25
2023-10-12T04:45:05.073Z,5.80
2023-10-12T04:47:31.233Z,6.05
2023-10-12T04:49:58.860Z,5.88
2023-10-12T04:52:25.325Z,6.10
2023-10-12T04:54:51.530Z,6.18
2023-10-12T04:57:17.751Z,6.35
2023-10-12T04:59:43.913Z,6.35
2023-10-12T05:02:10.056Z,6.47
2023-10-12T05:04:36.632Z,6.43
2023-10-12T05:07:03.005Z,7.07
2023-10-12T05:09:29.289Z,6.70
2023-10-12T05:11:55.470Z,6.35
2023-10-12T05:14:21.627Z,6.68
2023-10-12T05:16:47.860Z,6.93
2023-10-12T05:19:15.379Z,6.97
2023-10-12T05:21:41.662Z,6.70
2023-10-12T05:24:07.920Z,6.95
2023-10-12T05:26:34.082Z,5.55
2023-10-12T05:29:00.286Z,6.78
2023-10-12T05:31:26.480Z,6.38
2023-10-12T05:33:52.810Z,6.18
2023-10-12T05:36:20.023Z,5.65
2023-10-12T05:38:46.317Z,6.45
2023-10-12T05:41:12.516Z,6.13
2023-10-12T05:43:38.708Z,6.32
2023-10-12T05:46:05.043Z,6.43
2023-10-12T05:48:32.409Z,6.38
2023-10-12T05:50:58.591Z,4.65
2023-10-12T05:53:24.749Z,5.90
2023-10-12T05:55:50.989Z,5.70
2023-10-12T05:58:17.124Z,6.35
2023-10-12T06:00:43.408Z,6.35
2023-10-12T06:03:09.624Z,5.25
2023-10-12T06:05:37.805Z,6.35
2023-10-12T06:08:03.984Z,7.30
2023-10-12T06:10:30.152Z,5.82
2023-10-12T06:12:56.396Z,6.38
2023-10-12T06:15:22.747Z,6.00
2023-10-12T06:17:49.005Z,7.00
2023-10-12T06:20:16.240Z,5.85
2023-10-12T06:22:42.420Z,6.35
2023-10-12T06:25:08.661Z,6.57
2023-10-12T06:27:34.916Z,6.78
2023-10-12T06:30:01.098Z,6.90
2023-10-12T06:32:27.337Z,6.32
2023-10-12T06:34:53.637Z,5.43
2023-10-12T06:37:19.831Z,6.57
2023-10-12T06:39:46.006Z,7.70
2023-10-12T06:42:12.187Z,7.38
2023-10-12T06:44:38.336Z,5.85
2023-10-12T06:47:04.496Z,6.88
2023-10-12T06:49:32.731Z,7.45
2023-10-12T06:52:02.232Z,6.85
2023-10-12T06:54:28.589Z,6.60
2023-10-12T06:56:54.750Z,6.57
2023-10-12T06:59:21.023Z,6.18
2023-10-12T07:01:47.365Z,6.60
2023-10-12T07:04:14.797Z,5.97
2023-10-12T07:06:40.990Z,7.00
2023-10-12T07:09:07.154Z,6.10
2023-10-12T07:11:34.505Z,6.38
2023-10-12T07:14:00.710Z,6.95
2023-10-12T07:16:27.016Z,6.13
2023-10-12T07:19:08.783Z,5.95
2023-10-12T07:21:40.789Z,6.55
2023-10-12T07:24:07.024Z,6.57
2023-10-12T07:26:33.185Z,5.47
2023-10-12T07:28:59.562Z,6.55
2023-10-12T07:31:25.736Z,6.15
2023-10-12T07:33:52.068Z,5.60
2023-10-12T07:36:18.309Z,5.93
2023-10-12T07:38:44.485Z,5.85
2023-10-12T07:41:10.921Z,5.55
2023-10-12T07:43:37.075Z,6.47
2023-10-12T07:46:04.431Z,5.45
2023-10-12T07:48:30.673Z,5.63
2023-10-12T07:50:56.839Z,6.20
2023-10-12T07:53:23.030Z,6.53
2023-10-12T07:55:49.381Z,6.68
2023-10-12T07:58:15.665Z,5.63
2023-10-12T08:00:42.080Z,5.25
2023-10-12T08:03:09.319Z,6.15
2023-10-12T08:05:35.760Z,5.57
2023-10-12T08:08:01.934Z,5.43
2023-10-12T08:10:28.130Z,4.68
2023-10-12T08:12:54.298Z,5.47
2023-10-12T08:15:20.520Z,5.47
2023-10-12T08:17:46.741Z,5.07
2023-10-12T08:20:13.016Z,5.20
2023-10-12T08:22:39.273Z,5.70
2023-10-12T08:25:05.786Z,6.20
2023-10-12T08:27:32.154Z,5.68
2023-10-12T08:29:58.539Z,5.25
2023-10-12T08:32:24.692Z,5.47
2023-10-12T08:34:52.173Z,5.20
2023-10-12T08:37:18.436Z,5.55
2023-10-12T08:39:47.304Z,5.07
2023-10-12T08:42:14.105Z,5.40
2023-10-12T08:44:40.269Z,5.05
2023-10-12T08:47:06.422Z,5.60
2023-10-12T08:49:32.802Z,5.85
2023-10-12T08:51:58.992Z,6.18
2023-10-12T08:54:25.181Z,5.45
2023-10-12T08:56:51.681Z,5.50
2023-10-12T08:59:17.853Z,5.28
2023-10-12T09:01:44.098Z,4.78
2023-10-12T09:04:10.710Z,4.72
2023-10-12T09:06:36.946Z,5.40
2023-10-12T09:09:03.185Z,4.70
2023-10-12T09:11:29.344Z,5.22
2023-10-12T09:13:55.538Z,4.68
2023-10-12T09:16:21.940Z,4.40
2023-10-12T09:18:48.600Z,4.53
2023-10-12T09:21:15.181Z,4.50
2023-10-12T09:23:41.386Z,4.60
2023-10-12T09:26:07.690Z,5.15
2023-10-12T09:28:33.855Z,4.80
2023-10-12T09:31:00.119Z,4.75
2023-10-12T09:33:26.753Z,4.88
2023-10-12T09:35:52.931Z,4.18
2023-10-12T09:38:19.226Z,4.55
2023-10-12T09:40:45.552Z,4.97
2023-10-12T09:43:11.929Z,5.10
2023-10-12T09:45:38.168Z,4.78
2023-10-12T09:48:04.466Z,4.75
2023-10-12T09:50:31.067Z,4.63
2023-10-12T09:52:57.306Z,4.72
2023-10-12T09:55:24.557Z,4.80
2023-10-12T09:57:50.997Z,4.85
2023-10-12T10:00:17.193Z,5.57
2023-10-12T10:02:43.573Z,4.82
2023-10-12T10:05:09.882Z,4.10
2023-10-12T10:07:36.637Z,5.25
2023-10-12T10:12:29.119Z,3.72
2023-10-12T10:14:55.652Z,5.03
2023-10-12T10:17:21.886Z,4.18
2023-10-12T10:19:49.507Z,4.88
2023-10-12T10:22:15.931Z,4.20
2023-10-12T10:24:42.140Z,4.18
2023-10-12T10:27:08.325Z,4.90
2023-10-12T10:29:34.544Z,4.43
2023-10-12T10:32:00.775Z,4.18
2023-10-12T10:34:27.011Z,4.35
2023-10-12T10:36:53.239Z,4.85
2023-10-12T10:39:19.687Z,4.75
2023-10-12T10:41:45.867Z,4.50
2023-10-12T10:44:12.150Z,5.25
2023-10-12T10:46:38.614Z,4.53
2023-10-12T10:49:29.809Z,5.10
2023-10-12T10:51:51.022Z,4.50
2023-10-12T10:54:17.295Z,4.80
2023-10-12T10:56:43.614Z,4.40
2023-10-12T10:59:11.661Z,4.65
2023-10-12T11:01:37.972Z,4.32
2023-10-12T11:04:04.255Z,4.53
2023-10-12T11:06:30.486Z,4.53
2023-10-12T11:08:56.650Z,4.70
2023-10-12T11:11:22.852Z,5.07
2023-10-12T11:13:49.032Z,4.97
2023-10-12T11:16:15.377Z,4.57
2023-10-12T11:18:42.074Z,3.65
2023-10-12T11:21:10.800Z,4.13
2023-10-12T11:23:37.047Z,4.65
2023-10-12T11:26:03.486Z,5.60
2023-10-12T11:28:29.673Z,3.75
2023-10-12T11:30:57.743Z,4.70
2023-10-12T11:33:24.152Z,4.53
2023-10-12T11:35:51.175Z,5.10
2023-10-12T11:38:17.517Z,4.28
2023-10-12T11:40:43.746Z,4.75
2023-10-12T11:43:09.984Z,3.55
2023-10-12T11:45:37.765Z,4.30
2023-10-12T11:48:04.225Z,4.32
2023-10-12T11:50:30.564Z,4.30
2023-10-12T11:52:57.027Z,4.38
2023-10-12T11:55:23.439Z,4.40
2023-10-12T11:57:54.101Z,4.53
2023-10-12T12:00:20.284Z,4.93
2023-10-12T12:02:46.489Z,5.00
2023-10-12T12:05:12.728Z,4.90
2023-10-12T12:07:39.430Z,4.78
2023-10-12T12:10:05.597Z,5.35
2023-10-12T12:12:31.843Z,4.45
2023-10-12T12:14:58.011Z,4.90
2023-10-12T12:17:24.271Z,4.90
2023-10-12T12:19:50.537Z,4.63
2023-10-12T12:22:16.817Z,5.30
2023-10-12T12:24:44.885Z,5.03
2023-10-12T12:27:11.079Z,4.82
2023-10-12T12:29:55.917Z,4.78
2023-10-12T12:32:23.405Z,4.65
2023-10-12T12:34:49.706Z,4.68
2023-10-12T12:37:16.010Z,4.22
2023-10-12T12:39:42.291Z,5.18
2023-10-12T12:42:08.477Z,4.63
2023-10-12T12:44:34.789Z,5.43
2023-10-12T12:47:01.317Z,4.68
2023-10-12T12:49:27.654Z,4.85
2023-10-12T12:51:53.863Z,4.93
2023-10-12T12:54:20.475Z,4.80
2023-10-12T12:59:14.507Z,3.92
2023-10-12T13:01:42.452Z,4.70
2023-10-12T13:04:08.775Z,4.22
2023-10-12T13:06:35.017Z,3.13
2023-10-12T13:09:01.491Z,4.85
2023-10-12T13:11:27.674Z,4.80
2023-10-12T13:13:54.097Z,4.57
2023-10-12T13:16:20.372Z,4.43
2023-10-12T13:18:46.606Z,4.03
2023-10-12T13:21:12.801Z,4.95
2023-10-12T13:23:39.103Z,4.93
2023-10-12T13:26:05.380Z,4.97
2023-10-12T13:28:31.583Z,5.40
2023-10-12T13:30:57.772Z,5.05
2023-10-12T13:33:23.920Z,4.75
2023-10-12T13:35:50.913Z,4.70
2023-10-12T13:38:18.441Z,4.78
2023-10-12T13:40:44.617Z,4.68
2023-10-12T13:43:10.864Z,4.55
2023-10-12T13:45:37.076Z,4.80
2023-10-12T13:48:03.272Z,5.25
2023-10-12T13:50:29.712Z,4.63
2023-10-12T13:52:56.092Z,4.50
2023-10-12T13:55:22.384Z,5.57
2023-10-12T13:57:48.685Z,5.15
2023-10-12T14:00:14.915Z,5.53
2023-10-12T14:02:41.296Z,6.60
2023-10-12T14:05:07.576Z,4.47
2023-10-12T14:07:33.816Z,5.85
2023-10-12T14:09:59.991Z,5.38
2023-10-12T14:12:26.339Z,4.60
2023-10-12T14:14:52.482Z,4.30
2023-10-12T14:17:18.687Z,5.15
2023-10-12T14:19:44.960Z,5.10
2023-10-12T14:22:11.256Z,5.22
2023-10-12T14:24:37.428Z,5.55
2023-10-12T14:27:04.886Z,4.90
2023-10-12T14:29:31.268Z,5.10
2023-10-12T14:31:57.617Z,4.65
2023-10-12T14:34:24.009Z,4.57
2023-10-12T14:36:51.750Z,5.07
2023-10-12T14:39:18.193Z,4.95
2023-10-12T14:41:44.592Z,5.10
2023-10-12T14:44:10.937Z,4.93
2023-10-12T14:46:37.364Z,5.22
2023-10-12T14:49:03.687Z,5.40
2023-10-12T14:51:29.935Z,4.63
2023-10-12T14:53:56.071Z,5.07
2023-10-12T14:56:22.284Z,4.88
2023-10-12T14:58:48.470Z,4.32
2023-10-12T15:01:14.752Z,5.40
2023-10-12T15:03:41.285Z,5.22
2023-10-12T15:06:07.491Z,5.65
2023-10-12T15:08:33.857Z,5.93
2023-10-12T15:11:00.065Z,4.65
2023-10-12T15:13:26.362Z,5.00
2023-10-12T15:15:52.684Z,5.57
2023-10-12T15:18:19.292Z,6.63
2023-10-12T15:20:45.465Z,5.47
2023-10-12T15:23:11.629Z,5.88
2023-10-12T15:25:37.809Z,5.55
2023-10-12T15:28:04.129Z,5.35
2023-10-12T15:30:30.363Z,5.30
2023-10-12T15:32:56.691Z,5.55
2023-10-12T15:35:22.890Z,5.90
2023-10-12T15:37:49.094Z,6.13
2023-10-12T15:40:15.591Z,5.70
2023-10-12T15:42:42.252Z,7.07
2023-10-12T15:45:08.503Z,5.53
2023-10-12T15:47:34.768Z,5.95
2023-10-12T15:50:00.936Z,6.13
2023-10-12T15:52:27.227Z,5.47
2023-10-12T15:54:53.423Z,5.35
2023-10-12T15:57:19.830Z,5.38
2023-10-12T15:59:45.983Z,5.97
2023-10-12T16:02:13.446Z,5.60
2023-10-12T16:04:41.824Z,5.45
2023-10-12T16:07:09.662Z,5.80
2023-10-12T16:09:35.865Z,6.13
2023-10-12T16:12:02.050Z,5.93
2023-10-12T16:14:28.220Z,5.53
2023-10-12T16:16:54.797Z,6.22
2023-10-12T16:19:21.182Z,5.20
2023-10-12T16:24:15.495Z,5.22
2023-10-12T16:26:41.736Z,4.90
2023-10-12T16:29:07.916Z,4.15
2023-10-12T16:31:35.645Z,5.75
2023-10-12T16:34:02.042Z,8.20
2023-10-12T16:36:29.352Z,4.90
2023-10-12T16:38:55.602Z,5.35
2023-10-12T16:41:21.904Z,5.10
2023-10-12T16:43:48.345Z,10.45
2023-10-12T16:46:14.630Z,4.45
2023-10-12T16:48:42.706Z,6.43
2023-10-12T16:51:08.946Z,5.40
2023-10-12T16:53:35.158Z,7.57
2023-10-12T16:56:01.449Z,6.38
2023-10-12T16:58:29.072Z,7.03
2023-10-12T17:00:55.689Z,6.40
2023-10-12T17:03:22.078Z,6.70
2023-10-12T17:05:48.326Z,6.35
2023-10-12T17:08:15.717Z,6.55
2023-10-12T17:10:42.094Z,7.20
2023-10-12T17:13:08.322Z,6.70
2023-10-12T17:15:34.551Z,6.75
2023-10-12T17:18:00.731Z,7.80
2023-10-12T17:20:29.067Z,7.65
2023-10-12T17:22:55.236Z,7.85
2023-10-12T17:25:21.441Z,7.55
2023-10-12T17:27:47.717Z,6.53
2023-10-12T17:30:13.897Z,6.55
2023-10-12T17:32:40.110Z,5.97
2023-10-12T17:35:06.326Z,6.88
2023-10-12T17:37:32.599Z,6.68
2023-10-12T17:39:58.905Z,6.50
2023-10-12T17:42:25.112Z,7.28
2023-10-12T17:44:53.746Z,7.05
2023-10-12T17:47:19.980Z,7.38
2023-10-12T17:49:46.480Z,7.50
2023-10-12T17:52:12.667Z,7.90
2023-10-12T17:54:38.849Z,6.35
2023-10-12T17:57:05.080Z,7.68
2023-10-12T17:59:31.277Z,7.13
2023-10-12T18:01:57.522Z,7.03
2023-10-12T18:04:26.120Z,8.32
2023-10-12T18:06:52.924Z,7.53
2023-10-12T18:09:19.320Z,6.70
2023-10-12T18:11:45.719Z,6.05
2023-10-12T18:14:12.043Z,7.25
2023-10-12T18:16:38.301Z,5.93
2023-10-12T18:19:04.525Z,6.72
2023-10-12T18:21:32.340Z,4.90
2023-10-12T18:23:58.492Z,5.25
2023-10-12T18:26:24.694Z,4.07
2023-10-12T18:28:51.138Z,3.55
2023-10-12T18:31:17.378Z,3.50
2023-10-12T18:33:43.714Z,3.72
2023-10-12T18:36:10.674Z,4.22
2023-10-12T18:43:29.539Z,3.60
2023-10-12T18:45:55.807Z,3.08
2023-10-12T18:48:22.053Z,3.22
2023-10-12T18:50:48.303Z,4.22
2023-10-12T18:53:14.458Z,3.33
2023-10-12T18:55:40.688Z,3.50
2023-10-12T18:58:06.911Z,2.92
2023-10-12T19:00:33.130Z,3.97
2023-10-12T19:02:59.379Z,3.70
2023-10-12T19:05:25.681Z,2.97
2023-10-12T19:07:52.160Z,2.72
2023-10-12T19:10:18.376Z,6.00
2023-10-12T19:12:44.568Z,2.47
2023-10-12T19:15:10.885Z,3.30
2023-10-12T19:17:37.138Z,3.72
2023-10-12T19:20:03.393Z,3.88
2023-10-12T19:22:29.627Z,4.05
2023-10-12T19:24:55.814Z,4.13
2023-10-12T19:27:22.130Z,4.47
2023-10-12T19:29:48.308Z,4.65
2023-10-12T19:32:14.454Z,4.68
2023-10-12T19:34:40.674Z,5.28
2023-10-12T19:37:06.896Z,4.93
2023-10-12T19:39:33.080Z,5.72
2023-10-12T19:41:59.341Z,6.95
2023-10-12T19:44:25.529Z,5.78
2023-10-12T19:46:51.826Z,7.03
2023-10-12T19:49:18.217Z,7.32
2023-10-12T19:51:44.422Z,8.25
2023-10-12T19:54:10.599Z,7.38
2023-10-12T19:56:36.818Z,7.55
2023-10-12T19:59:03.055Z,7.32
2023-10-12T20:01:30.428Z,7.43
2023-10-12T20:03:56.827Z,8.32
2023-10-12T20:06:23.314Z,8.07
2023-10-12T20:08:50.182Z,7.60
2023-10-12T20:11:16.706Z,8.10
2023-10-12T20:13:42.981Z,7.65
2023-10-12T20:16:09.271Z,8.55
2023-10-12T20:18:35.518Z,8.13
2023-10-12T20:21:01.691Z,7.47
2023-10-12T20:23:27.877Z,8.75
2023-10-12T20:25:54.159Z,9.02
2023-10-12T20:28:20.418Z,8.02
2023-10-12T20:30:46.859Z,8.57
2023-10-12T20:33:13.179Z,10.10
2023-10-12T20:35:39.313Z,9.18
2023-10-12T20:38:05.557Z,9.77
2023-10-12T20:40:31.757Z,10.57
2023-10-12T20:42:58.062Z,10.30
2023-10-12T20:45:24.239Z,11.20
2023-10-12T20:47:50.442Z,11.30
2023-10-12T20:50:16.640Z,10.75
2023-10-12T20:52:42.884Z,10.82
2023-10-12T20:55:09.070Z,11.43
2023-10-12T20:57:35.298Z,11.30
2023-10-12T21:00:01.569Z,11.52
2023-10-12T21:02:27.838Z,11.18
2023-10-12T21:04:54.161Z,10.63
2023-10-12T21:07:20.405Z,11.13
2023-10-12T21:09:46.672Z,11.77
2023-10-12T21:12:12.943Z,11.00
2023-10-12T21:14:39.089Z,10.77
2023-10-12T21:17:05.612Z,11.70
2023-10-12T21:19:32.235Z,11.30
2023-10-12T21:21:58.449Z,10.40
2023-10-12T21:24:24.619Z,9.60
2023-10-12T21:26:50.891Z,11.15
2023-10-12T21:29:17.026Z,9.77
2023-10-12T21:31:44.452Z,10.35
2023-10-12T21:34:10.799Z,10.25
2023-10-12T21:36:36.959Z,10.88
2023-10-12T21:39:03.135Z,10.32
2023-10-12T21:41:29.353Z,10.50
2023-10-12T21:43:55.539Z,12.00
2023-10-12T21:46:21.744Z,12.27
2023-10-12T21:48:47.984Z,11.60
2023-10-12T21:51:14.158Z,11.68
2023-10-12T21:53:40.319Z,11.25
2023-10-12T21:56:06.560Z,11.52
2023-10-12T21:58:32.836Z,11.13
2023-10-12T22:00:59.057Z,11.63
2023-10-12T22:03:25.373Z,10.27
2023-10-12T22:05:51.595Z,12.23
2023-10-12T22:08:17.781Z,11.18
2023-10-12T22:10:43.941Z,10.55
2023-10-12T22:13:10.235Z,10.68
2023-10-12T22:15:36.747Z,9.60
2023-10-12T22:18:02.959Z,10.90
2023-10-12T22:20:29.185Z,11.50
2023-10-12T22:22:55.338Z,11.88
2023-10-12T22:25:21.542Z,10.90
2023-10-12T22:27:47.872Z,11.93
2023-10-12T22:30:14.205Z,10.52
2023-10-12T22:32:40.481Z,11.80
2023-10-12T22:35:06.752Z,11.65
2023-10-12T22:37:32.975Z,11.48
2023-10-12T22:39:59.256Z,12.55
2023-10-12T22:42:25.604Z,13.07
2023-10-12T22:44:51.862Z,13.07
2023-10-12T22:47:18.029Z,12.13
2023-10-12T22:49:44.232Z,11.98
2023-10-12T22:52:10.450Z,11.38
2023-10-12T22:54:36.628Z,11.75
2023-10-12T22:57:02.882Z,11.77
2023-10-12T22:59:29.021Z,9.63
2023-10-12T23:01:55.254Z,11.27
2023-10-12T23:04:21.559Z,12.40
2023-10-12T23:06:47.752Z,10.63
2023-10-12T23:09:13.909Z,12.30
2023-10-12T23:11:40.166Z,12.48
2023-10-12T23:14:06.317Z,12.05
2023-10-12T23:16:32.628Z,11.40
2023-10-12T23:18:58.918Z,10.50
2023-10-12T23:21:25.137Z,10.90
2023-10-12T23:23:51.297Z,10.05
2023-10-12T23:26:17.557Z,11.38
2023-10-12T23:28:43.866Z,10.07
2023-10-12T23:31:10.053Z,9.32
2023-10-12T23:33:36.243Z,9.85
2023-10-12T23:36:02.451Z,11.13
2023-10-12T23:38:28.605Z,10.43
2023-10-12T23:40:54.749Z,10.32
2023-10-12T23:43:21.010Z,9.23
2023-10-12T23:45:47.197Z,9.27
2023-10-12T23:48:13.433Z,10.70
2023-10-12T23:50:39.639Z,8.52
2023-10-12T23:53:05.781Z,8.70
2023-10-12T23:55:32.038Z,8.50
2023-10-12T23:57:58.307Z,8.35
